Terminal Aerodrome Forecast
Issued by NWS Omaha/Valley, NE

Home | Current Version | Previous Version | Text Only | Print | Product List | Glossary On
Versions: 1 2 3 4 5 6 7 8 9 10 11 12 13 14 15 16 17 18 19 20 21 22 23 24 25 26 27 28 29 30 31 32 33 34 35 36 37 38 39 40
000
FTUS43 KOAX 162138 AAA
TAFLNK
TAF AMD
KLNK 162138Z 1622/1718 36010KT 5SM BR OVC006
     FM170300 33013KT P6SM OVC008
     FM171000 33013KT P6SM OVC015
     FM171500 32006KT P6SM FEW250=

USA.gov is the U.S. government's official web portal to all federal, state and local government web resources and services.